createdAt,value
2022-08-17T00:02:06.562Z,18.48
2022-08-17T00:05:28.556Z,18.45
2022-08-17T00:08:41.984Z,18.43
2022-08-17T00:12:43.734Z,18.39
2022-08-17T00:15:10.527Z,18.33
2022-08-17T00:18:58.401Z,18.29
2022-08-17T00:22:29.560Z,18.23
2022-08-17T00:24:58.388Z,18.16
2022-08-17T00:28:00.154Z,18.13
2022-08-17T00:31:01.997Z,18.09
2022-08-17T00:34:06.267Z,18.05
2022-08-17T00:37:07.821Z,18.02
2022-08-17T00:40:12.641Z,17.97
2022-08-17T00:43:19.460Z,17.93
2022-08-17T00:46:24.753Z,17.89
2022-08-17T00:49:26.419Z,17.85
2022-08-17T00:52:36.080Z,17.81
2022-08-17T00:55:37.717Z,17.78
2022-08-17T00:58:40.202Z,17.75
2022-08-17T01:01:42.372Z,17.73
2022-08-17T01:04:47.128Z,17.72
2022-08-17T01:07:50.978Z,17.70
2022-08-17T01:10:58.196Z,17.67
2022-08-17T01:14:04.093Z,17.64
2022-08-17T01:17:07.052Z,17.62
2022-08-17T01:20:09.293Z,17.57
2022-08-17T01:23:10.953Z,17.50
2022-08-17T01:26:18.285Z,17.46
2022-08-17T01:29:21.662Z,17.42
2022-08-17T01:32:23.521Z,17.36
2022-08-17T01:35:25.234Z,17.30
2022-08-17T01:38:31.652Z,17.27
2022-08-17T01:41:34.745Z,17.22
2022-08-17T01:44:36.806Z,17.15
2022-08-17T01:47:41.773Z,17.07
2022-08-17T01:50:45.437Z,17.03
2022-08-17T01:53:52.735Z,17.00
2022-08-17T01:56:54.310Z,16.93
2022-08-17T01:59:55.877Z,16.89
2022-08-17T02:02:57.490Z,16.84
2022-08-17T02:05:59.071Z,16.80
2022-08-17T02:12:05.853Z,16.72
2022-08-17T02:15:27.644Z,16.66
2022-08-17T02:18:30.187Z,16.62
2022-08-17T02:21:32.454Z,16.58
2022-08-17T02:25:00.187Z,16.56
2022-08-17T02:27:59.908Z,16.52
2022-08-17T02:31:11.121Z,16.49
2022-08-17T02:34:12.838Z,16.45
2022-08-17T02:37:17.593Z,16.42
2022-08-17T02:40:28.606Z,16.38
2022-08-17T02:43:38.116Z,16.38
2022-08-17T02:46:39.696Z,16.38
2022-08-17T02:49:42.069Z,16.37
2022-08-17T02:53:01.828Z,16.34
2022-08-17T02:56:04.482Z,16.29
2022-08-17T02:59:06.163Z,16.26
2022-08-17T03:02:10.633Z,16.23
2022-08-17T03:05:15.588Z,16.21
2022-08-17T03:08:18.034Z,16.20
2022-08-17T03:11:19.593Z,16.21
2022-08-17T03:14:21.508Z,16.20
2022-08-17T03:17:27.874Z,16.18
2022-08-17T03:20:31.751Z,16.17
2022-08-17T03:23:33.764Z,16.17
2022-08-17T03:26:35.483Z,16.18
2022-08-17T03:29:37.110Z,16.21
2022-08-17T03:32:41.101Z,16.19
2022-08-17T03:35:42.760Z,16.19
2022-08-17T03:38:44.318Z,16.21
2022-08-17T03:41:46.681Z,16.25
2022-08-17T03:44:52.829Z,16.27
2022-08-17T03:48:17.645Z,16.27
2022-08-17T03:51:43.080Z,16.26
2022-08-17T03:55:03.798Z,16.23
2022-08-17T03:58:05.490Z,16.25
2022-08-17T04:01:07.415Z,16.28
2022-08-17T04:04:09.132Z,16.32
2022-08-17T04:07:10.876Z,16.35
2022-08-17T04:10:14.134Z,16.37
2022-08-17T04:13:16.273Z,16.37
2022-08-17T04:16:26.550Z,16.40
2022-08-17T04:19:28.143Z,16.37
2022-08-17T04:22:33.849Z,16.35
2022-08-17T04:25:38.537Z,16.34
2022-08-17T04:28:43.096Z,16.36
2022-08-17T04:31:44.832Z,16.33
2022-08-17T04:34:46.436Z,16.31
2022-08-17T04:37:48.344Z,16.28
2022-08-17T04:41:09.929Z,16.28
2022-08-17T04:44:12.030Z,16.28
2022-08-17T04:47:14.076Z,16.29
2022-08-17T04:50:15.643Z,16.30
2022-08-17T04:53:18.537Z,16.30
2022-08-17T04:56:20.315Z,16.28
2022-08-17T04:59:22.636Z,16.25
2022-08-17T05:02:24.225Z,16.23
2022-08-17T05:05:32.365Z,16.23
2022-08-17T05:08:34.240Z,16.22
2022-08-17T05:11:36.465Z,16.21
2022-08-17T05:14:39.600Z,16.22
2022-08-17T05:17:41.168Z,16.23
2022-08-17T05:20:44.177Z,16.24
2022-08-17T05:23:49.194Z,16.31
2022-08-17T05:26:56.629Z,16.65
2022-08-17T05:29:58.171Z,17.00
2022-08-17T05:33:05.537Z,17.29
2022-08-17T05:36:09.895Z,17.50
2022-08-17T05:39:32.073Z,17.70
2022-08-17T05:42:33.700Z,17.77
2022-08-17T05:45:55.755Z,17.78
2022-08-17T05:49:05.832Z,17.77
2022-08-17T05:52:07.497Z,17.72
2022-08-17T05:55:35.636Z,17.68
2022-08-17T05:59:12.630Z,17.65
2022-08-17T06:02:32.424Z,17.60
2022-08-17T06:06:11.436Z,17.60
2022-08-17T06:09:17.911Z,17.67
2022-08-17T06:12:41.125Z,17.72
2022-08-17T06:15:49.483Z,17.73
2022-08-17T06:19:06.565Z,17.75
2022-08-17T06:22:12.676Z,17.76
2022-08-17T06:25:18.085Z,17.75
2022-08-17T06:28:38.023Z,17.71
2022-08-17T06:31:40.849Z,17.69
2022-08-17T06:34:44.969Z,17.75
2022-08-17T06:38:01.542Z,17.79
2022-08-17T06:41:38.448Z,17.81
2022-08-17T06:44:51.186Z,17.80
2022-08-17T06:48:00.031Z,17.81
2022-08-17T06:51:14.938Z,17.83
2022-08-17T06:54:36.752Z,17.92
2022-08-17T06:57:45.256Z,17.98
2022-08-17T07:00:48.924Z,18.02
2022-08-17T07:03:54.785Z,18.09
2022-08-17T07:07:30.069Z,18.11
2022-08-17T07:10:38.166Z,18.12
2022-08-17T07:14:17.323Z,18.18
2022-08-17T07:17:21.537Z,18.25
2022-08-17T07:20:50.445Z,18.33
2022-08-17T07:24:00.697Z,18.48
2022-08-17T07:27:23.279Z,18.63
2022-08-17T07:30:50.337Z,18.78
2022-08-17T07:34:06.818Z,18.89
2022-08-17T07:37:08.422Z,19.03
2022-08-17T07:40:28.718Z,19.16
2022-08-17T07:43:31.079Z,19.23
2022-08-17T07:46:53.832Z,19.28
2022-08-17T07:49:55.458Z,19.32
2022-08-17T07:52:59.202Z,19.40
2022-08-17T07:56:00.924Z,19.48
2022-08-17T07:59:21.844Z,19.53
2022-08-17T08:02:41.332Z,19.62
2022-08-17T08:05:50.956Z,19.70
2022-08-17T08:08:55.962Z,19.79
2022-08-17T08:11:57.563Z,19.89
2022-08-17T08:15:01.221Z,19.99
2022-08-17T08:18:06.243Z,20.09
2022-08-17T08:21:20.629Z,20.20
2022-08-17T08:24:59.837Z,20.31
2022-08-17T08:28:43.531Z,20.44
2022-08-17T08:31:50.925Z,20.55
2022-08-17T08:35:17.439Z,20.71
2022-08-17T08:38:53.750Z,20.85
2022-08-17T08:41:55.429Z,20.99
2022-08-17T08:45:26.232Z,21.13
2022-08-17T08:48:53.344Z,21.23
2022-08-17T08:52:01.750Z,21.34
2022-08-17T08:55:15.437Z,21.47
2022-08-17T08:58:31.691Z,21.59
2022-08-17T09:01:56.982Z,21.74
2022-08-17T09:05:20.210Z,21.91
2022-08-17T09:08:46.446Z,22.05
2022-08-17T09:12:02.873Z,22.19
2022-08-17T09:15:32.106Z,22.31
2022-08-17T09:19:01.747Z,22.45
2022-08-17T09:22:17.548Z,22.56
2022-08-17T09:25:28.989Z,22.70
2022-08-17T09:28:36.362Z,22.83
2022-08-17T09:31:48.878Z,22.98
2022-08-17T09:34:54.931Z,23.14
2022-08-17T09:38:41.728Z,23.31
2022-08-17T09:41:51.932Z,23.41
2022-08-17T09:45:21.680Z,23.47
2022-08-17T09:48:29.045Z,23.53
2022-08-17T09:51:45.621Z,23.66
2022-08-17T09:54:51.013Z,23.75
2022-08-17T09:58:09.836Z,23.85
2022-08-17T10:01:36.464Z,23.92
2022-08-17T10:05:09.734Z,23.98
2022-08-17T10:08:17.107Z,24.03
2022-08-17T10:11:48.149Z,24.08
2022-08-17T10:15:08.145Z,24.17
2022-08-17T10:18:34.957Z,24.29
2022-08-17T10:22:00.841Z,24.46
2022-08-17T10:25:33.446Z,24.68
2022-08-17T10:29:12.770Z,24.93
2022-08-17T10:32:28.297Z,25.12
2022-08-17T10:35:45.456Z,25.27
2022-08-17T10:38:49.983Z,25.37
2022-08-17T10:41:57.933Z,25.44
2022-08-17T10:45:15.471Z,25.50
2022-08-17T10:48:51.550Z,25.49
2022-08-17T10:51:56.721Z,25.51
2022-08-17T10:55:01.571Z,25.56
2022-08-17T10:58:22.145Z,25.64
2022-08-17T11:01:33.012Z,25.68
2022-08-17T11:04:58.919Z,25.77
2022-08-17T11:08:12.742Z,25.87
2022-08-17T11:11:51.031Z,25.96
2022-08-17T11:14:55.529Z,26.06
2022-08-17T11:18:01.618Z,26.09
2022-08-17T11:21:32.230Z,26.12
2022-08-17T11:24:38.801Z,26.16
2022-08-17T11:27:44.010Z,26.23
2022-08-17T11:30:54.094Z,26.29
2022-08-17T11:34:02.453Z,26.33
2022-08-17T11:37:40.216Z,26.40
2022-08-17T11:40:58.577Z,26.46
2022-08-17T11:44:24.552Z,26.51
2022-08-17T11:48:27.060Z,26.53
2022-08-17T11:51:55.912Z,26.56
2022-08-17T11:55:17.696Z,26.61
2022-08-17T11:58:30.608Z,26.60
2022-08-17T12:01:32.212Z,26.59
2022-08-17T12:04:35.959Z,26.64
2022-08-17T12:07:43.337Z,26.66
2022-08-17T12:10:55.978Z,26.70
2022-08-17T12:13:59.553Z,26.72
2022-08-17T12:17:12.669Z,26.69
2022-08-17T12:20:29.896Z,26.42
2022-08-17T12:23:48.277Z,26.11
2022-08-17T12:26:56.465Z,25.82
2022-08-17T12:29:59.317Z,25.58
2022-08-17T12:33:01.056Z,25.39
2022-08-17T12:36:07.486Z,25.28
2022-08-17T12:39:13.012Z,25.17
2022-08-17T12:42:31.163Z,25.10
2022-08-17T12:45:41.972Z,25.10
2022-08-17T12:48:58.725Z,25.19
2022-08-17T12:52:19.677Z,25.31
2022-08-17T12:55:26.305Z,25.41
2022-08-17T12:58:44.638Z,25.55
2022-08-17T13:01:46.621Z,25.68
2022-08-17T13:04:49.275Z,25.83
2022-08-17T13:07:53.468Z,25.96
2022-08-17T13:11:01.323Z,26.13
2022-08-17T13:14:11.937Z,26.29
2022-08-17T13:17:26.397Z,26.43
2022-08-17T13:20:28.172Z,26.47
2022-08-17T13:23:32.441Z,26.48
2022-08-17T13:26:43.083Z,26.55
2022-08-17T13:29:44.770Z,26.64
2022-08-17T13:32:48.326Z,26.77
2022-08-17T13:35:51.660Z,26.84
2022-08-17T13:39:07.781Z,26.82
2022-08-17T13:42:33.077Z,26.77
2022-08-17T13:45:43.518Z,26.75
2022-08-17T13:48:56.867Z,26.71
2022-08-17T13:51:58.733Z,26.61
2022-08-17T13:55:10.097Z,26.55
2022-08-17T13:58:11.949Z,26.50
2022-08-17T14:01:37.074Z,26.51
2022-08-17T14:04:41.127Z,26.52
2022-08-17T14:07:43.028Z,26.53
2022-08-17T14:10:49.668Z,26.54
2022-08-17T14:13:51.285Z,26.56
2022-08-17T14:16:53.865Z,26.59
2022-08-17T14:19:55.989Z,26.61
2022-08-17T14:22:58.172Z,26.65
2022-08-17T14:25:59.973Z,26.74
2022-08-17T14:29:01.866Z,26.88
2022-08-17T14:32:31.368Z,27.02
2022-08-17T14:35:33.066Z,27.08
2022-08-17T14:38:35.821Z,27.19
2022-08-17T14:41:39.054Z,27.21
2022-08-17T14:44:40.976Z,27.18
2022-08-17T14:47:42.703Z,27.07
2022-08-17T14:50:46.177Z,26.98
2022-08-17T14:53:49.076Z,26.92
2022-08-17T14:56:56.988Z,26.89
2022-08-17T15:00:13.288Z,26.86
2022-08-17T15:03:16.487Z,26.78
2022-08-17T15:06:18.072Z,26.68
2022-08-17T15:09:19.917Z,26.62
2022-08-17T15:12:26.426Z,26.54
2022-08-17T15:15:34.480Z,26.45
2022-08-17T15:18:36.716Z,26.41
2022-08-17T15:21:38.417Z,26.36
2022-08-17T15:24:40.074Z,26.34
2022-08-17T15:27:42.262Z,26.34
2022-08-17T15:30:45.089Z,26.33
2022-08-17T15:33:46.798Z,26.32
2022-08-17T15:36:49.381Z,26.30
2022-08-17T15:39:51.578Z,26.25
2022-08-17T15:42:53.514Z,26.18
2022-08-17T15:46:04.529Z,26.11
2022-08-17T15:49:06.308Z,26.03
2022-08-17T15:52:20.280Z,25.97
2022-08-17T15:55:24.166Z,25.95
2022-08-17T15:58:29.858Z,25.89
2022-08-17T16:02:54.741Z,25.87
2022-08-17T16:05:10.400Z,25.85
2022-08-17T16:08:13.916Z,25.84
2022-08-17T16:11:18.834Z,25.83
2022-08-17T16:14:20.437Z,25.83
2022-08-17T16:17:38.523Z,25.81
2022-08-17T16:20:42.708Z,25.77
2022-08-17T16:23:44.377Z,25.74
2022-08-17T16:26:45.933Z,25.71
2022-08-17T16:29:49.773Z,25.68
2022-08-17T16:33:00.421Z,25.63
2022-08-17T16:36:02.021Z,25.62
2022-08-17T16:39:04.758Z,25.61
2022-08-17T16:42:25.372Z,25.58
2022-08-17T16:45:29.448Z,25.51
2022-08-17T16:48:31.200Z,25.39
2022-08-17T16:51:32.804Z,25.27
2022-08-17T16:54:35.459Z,25.13
2022-08-17T16:57:47.263Z,25.02
2022-08-17T17:00:52.284Z,24.91
2022-08-17T17:03:58.440Z,24.84
2022-08-17T17:07:07.149Z,24.77
2022-08-17T17:10:12.505Z,24.69
2022-08-17T17:13:54.146Z,24.62
2022-08-17T17:17:12.705Z,24.52
2022-08-17T17:20:24.260Z,24.45
2022-08-17T17:23:42.739Z,24.37
2022-08-17T17:26:56.484Z,24.28
2022-08-17T17:30:21.642Z,24.20
2022-08-17T17:33:36.214Z,24.13
2022-08-17T17:37:08.698Z,24.09
2022-08-17T17:40:41.996Z,24.08
2022-08-17T17:43:43.594Z,24.07
2022-08-17T17:46:52.177Z,24.02
2022-08-17T17:49:53.914Z,23.96
2022-08-17T17:53:09.599Z,23.87
2022-08-17T17:56:43.588Z,23.61
2022-08-17T17:59:50.775Z,23.31
2022-08-17T18:02:58.239Z,23.10
2022-08-17T18:06:12.731Z,22.93
2022-08-17T18:10:05.429Z,22.77
2022-08-17T18:13:47.152Z,22.64
2022-08-17T18:16:55.894Z,22.56
2022-08-17T18:19:57.521Z,22.49
2022-08-17T18:22:59.182Z,22.43
2022-08-17T18:26:02.041Z,22.37
2022-08-17T18:29:34.608Z,22.27
2022-08-17T18:32:38.387Z,22.17
2022-08-17T18:35:58.745Z,22.09
2022-08-17T18:39:27.101Z,22.01
2022-08-17T18:42:29.567Z,21.90
2022-08-17T18:46:28.003Z,21.80
2022-08-17T18:49:30.702Z,21.68
2022-08-17T18:52:33.790Z,21.87
2022-08-17T18:55:35.460Z,21.74
2022-08-17T18:58:39.886Z,21.64
2022-08-17T19:01:59.982Z,21.52
2022-08-17T19:05:09.195Z,21.40
2022-08-17T19:08:29.208Z,21.33
2022-08-17T19:11:34.228Z,21.26
2022-08-17T19:14:36.679Z,21.20
2022-08-17T19:17:43.661Z,21.16
2022-08-17T19:21:06.027Z,21.19
2022-08-17T19:24:26.381Z,21.31
2022-08-17T19:28:04.293Z,21.46
2022-08-17T19:31:27.407Z,21.59
2022-08-17T19:34:33.972Z,21.69
2022-08-17T19:38:13.305Z,21.74
2022-08-17T19:41:28.371Z,21.68
2022-08-17T19:44:35.944Z,21.56
2022-08-17T19:47:55.120Z,21.43
2022-08-17T19:51:09.593Z,21.33
2022-08-17T19:54:15.144Z,21.35
2022-08-17T19:57:40.757Z,21.42
2022-08-17T20:00:50.060Z,21.49
2022-08-17T20:04:07.032Z,21.55
2022-08-17T20:07:43.576Z,21.61
2022-08-17T20:11:08.813Z,21.63
2022-08-17T20:14:18.776Z,21.66
2022-08-17T20:17:21.724Z,21.67
2022-08-17T20:20:55.736Z,21.69
2022-08-17T20:24:21.269Z,21.69
2022-08-17T20:27:32.219Z,21.60
2022-08-17T20:30:38.039Z,21.56
2022-08-17T20:33:39.749Z,21.55
2022-08-17T20:36:57.452Z,21.55
2022-08-17T20:39:58.986Z,21.54
2022-08-17T20:43:35.704Z,21.47
2022-08-17T20:46:37.610Z,21.38
2022-08-17T20:49:44.991Z,21.36
2022-08-17T20:52:51.779Z,21.35
2022-08-17T20:55:55.606Z,21.36
2022-08-17T20:58:59.042Z,21.37
2022-08-17T21:02:17.733Z,21.36
2022-08-17T21:06:00.032Z,21.34
2022-08-17T21:09:16.276Z,21.33
2022-08-17T21:12:41.913Z,21.31
2022-08-17T21:15:55.802Z,21.27
2022-08-17T21:19:17.972Z,21.22
2022-08-17T21:22:31.794Z,21.18
2022-08-17T21:26:03.264Z,21.14
2022-08-17T21:29:30.064Z,21.10
2022-08-17T21:32:36.076Z,21.09
2022-08-17T21:35:58.666Z,21.10
2022-08-17T21:39:06.455Z,21.10
2022-08-17T21:42:09.409Z,21.09
2022-08-17T21:45:20.714Z,21.07
2022-08-17T21:48:24.970Z,21.06
2022-08-17T21:51:28.976Z,21.04
2022-08-17T21:54:36.882Z,20.99
2022-08-17T21:57:41.901Z,20.91
2022-08-17T22:01:24.638Z,20.86
2022-08-17T22:04:29.583Z,20.81
2022-08-17T22:07:47.592Z,20.81
2022-08-17T22:10:51.217Z,20.84
2022-08-17T22:14:00.712Z,20.92
2022-08-17T22:17:26.356Z,21.13
2022-08-17T22:20:28.401Z,20.94
2022-08-17T22:23:56.749Z,20.76
2022-08-17T22:27:07.626Z,20.56
2022-08-17T22:30:25.645Z,20.38
2022-08-17T22:33:37.008Z,20.14
2022-08-17T22:36:40.480Z,19.93
2022-08-17T22:39:42.172Z,19.75
2022-08-17T22:42:49.942Z,19.62
2022-08-17T22:45:58.990Z,19.53
2022-08-17T22:49:00.741Z,19.39
2022-08-17T22:52:07.313Z,19.34
2022-08-17T22:55:35.645Z,19.32
2022-08-17T22:59:02.898Z,19.32
2022-08-17T23:02:13.745Z,19.18
2022-08-17T23:05:16.778Z,19.04
2022-08-17T23:08:21.287Z,18.94
2022-08-17T23:11:36.811Z,18.89
2022-08-17T23:14:57.451Z,18.82
2022-08-17T23:18:04.685Z,18.78
2022-08-17T23:21:07.697Z,18.75
2022-08-17T23:24:09.963Z,18.68
2022-08-17T23:27:12.353Z,18.63
2022-08-17T23:30:13.996Z,18.57
2022-08-17T23:33:24.219Z,18.49
2022-08-17T23:36:27.090Z,18.35
2022-08-17T23:39:28.933Z,18.22
2022-08-17T23:42:30.588Z,18.12
2022-08-17T23:45:32.273Z,18.02
2022-08-17T23:48:36.628Z,17.94
2022-08-17T23:51:43.992Z,17.88
2022-08-17T23:54:47.770Z,17.82
2022-08-17T23:57:50.014Z,17.77
